createdAt,value
2022-10-22T00:00:45.410Z,99872.29
2022-10-22T00:03:12.771Z,99874.02
2022-10-22T00:05:40.028Z,99869.13
2022-10-22T00:08:07.243Z,99865.48
2022-10-22T00:10:34.612Z,99867.75
2022-10-22T00:13:01.755Z,99873.21
2022-10-22T00:15:28.841Z,99876.81
2022-10-22T00:17:56.283Z,99875.77
2022-10-22T00:20:24.575Z,99874.70
2022-10-22T00:25:23.798Z,99872.94
2022-10-22T00:27:50.990Z,99865.67
2022-10-22T00:30:18.195Z,99862.77
2022-10-22T00:32:46.004Z,99856.25
2022-10-22T00:35:13.139Z,99855.69
2022-10-22T00:37:40.284Z,99853.30
2022-10-22T00:40:08.853Z,99851.45
2022-10-22T00:42:36.186Z,99845.04
2022-10-22T00:45:03.219Z,99842.25
2022-10-22T00:47:43.889Z,99838.57
2022-10-22T00:50:26.129Z,99840.27
2022-10-22T00:52:53.681Z,99830.48
2022-10-22T00:55:21.996Z,99827.12
2022-10-22T00:57:49.521Z,99819.96
2022-10-22T01:00:17.061Z,99813.84
2022-10-22T01:02:44.700Z,99813.20
2022-10-22T01:05:12.848Z,99820.58
2022-10-22T01:07:46.406Z,99818.79
2022-10-22T01:10:20.825Z,99810.02
2022-10-22T01:13:18.113Z,99808.76
2022-10-22T01:15:51.697Z,99807.39
2022-10-22T01:18:32.429Z,99812.14
2022-10-22T01:21:18.016Z,99823.59
2022-10-22T01:24:00.501Z,99837.61
2022-10-22T01:26:45.654Z,99847.39
2022-10-22T01:29:14.357Z,99845.28
2022-10-22T01:31:53.786Z,99839.41
2022-10-22T01:34:23.957Z,99837.92
2022-10-22T01:36:52.190Z,99826.98
2022-10-22T01:39:20.030Z,99823.61
2022-10-22T01:41:47.347Z,99808.98
2022-10-22T01:44:32.717Z,99795.86
2022-10-22T01:47:16.567Z,99797.65
2022-10-22T01:49:52.720Z,99801.51
2022-10-22T01:52:42.440Z,99805.84
2022-10-22T01:55:09.467Z,99803.38
2022-10-22T01:57:58.193Z,99799.86
2022-10-22T02:00:26.665Z,99797.30
2022-10-22T02:03:25.225Z,99800.98
2022-10-22T02:05:57.911Z,99807.70
2022-10-22T02:08:28.104Z,99808.13
2022-10-22T02:10:55.603Z,99808.07
2022-10-22T02:13:30.135Z,99800.71
2022-10-22T02:15:58.310Z,99789.02
2022-10-22T02:18:29.178Z,99784.91
2022-10-22T02:20:56.839Z,99791.42
2022-10-22T02:23:24.194Z,99793.98
2022-10-22T02:26:01.637Z,99796.34
2022-10-22T02:28:38.497Z,99807.40
2022-10-22T02:31:17.518Z,99809.38
2022-10-22T02:33:48.702Z,99802.98
2022-10-22T02:36:17.520Z,99803.68
2022-10-22T02:38:46.554Z,99806.67
2022-10-22T02:41:14.038Z,99805.23
2022-10-22T02:43:43.180Z,99808.48
2022-10-22T02:46:11.221Z,99814.46
2022-10-22T02:48:38.573Z,99814.27
2022-10-22T02:51:06.140Z,99816.13
2022-10-22T02:53:33.516Z,99801.77
2022-10-22T02:56:00.850Z,99790.57
2022-10-22T02:58:28.098Z,99788.58
2022-10-22T03:00:56.234Z,99790.88
2022-10-22T03:03:23.623Z,99796.42
2022-10-22T03:05:51.593Z,99799.09
2022-10-22T03:08:19.452Z,99798.93
2022-10-22T03:10:46.499Z,99804.48
2022-10-22T03:13:14.168Z,99809.39
2022-10-22T03:15:41.183Z,99807.70
2022-10-22T03:18:08.186Z,99805.12
2022-10-22T03:20:35.635Z,99802.48
2022-10-22T03:23:03.177Z,99798.20
2022-10-22T03:25:34.823Z,99804.59
2022-10-22T03:28:05.492Z,99805.77
2022-10-22T03:30:32.719Z,99805.73
2022-10-22T03:32:59.766Z,99808.98
2022-10-22T03:35:27.129Z,99805.80
2022-10-22T03:37:55.188Z,99803.18
2022-10-22T03:40:22.636Z,99802.36
2022-10-22T03:42:49.780Z,99802.02
2022-10-22T03:45:16.955Z,99795.36
2022-10-22T03:47:44.401Z,99798.83
2022-10-22T03:50:11.604Z,99804.20
2022-10-22T03:52:40.092Z,99804.25
2022-10-22T03:55:08.184Z,99806.47
2022-10-22T03:57:35.559Z,99809.36
2022-10-22T04:00:05.293Z,99809.17
2022-10-22T04:02:32.615Z,99812.46
2022-10-22T04:05:00.011Z,99812.27
2022-10-22T04:07:27.630Z,99811.40
2022-10-22T04:09:54.797Z,99806.98
2022-10-22T04:12:21.935Z,99809.05
2022-10-22T04:14:49.197Z,99804.70
2022-10-22T04:17:16.604Z,99801.36
2022-10-22T04:19:43.895Z,99796.23
2022-10-22T04:22:11.014Z,99794.16
2022-10-22T04:24:38.505Z,99782.09
2022-10-22T04:27:05.759Z,99777.63
2022-10-22T04:29:33.931Z,99778.95
2022-10-22T04:32:01.497Z,99781.46
2022-10-22T04:34:29.465Z,99784.11
2022-10-22T04:36:57.021Z,99785.44
2022-10-22T04:39:24.163Z,99785.64
2022-10-22T04:41:51.238Z,99783.84
2022-10-22T04:44:18.615Z,99785.13
2022-10-22T04:46:46.188Z,99801.80
2022-10-22T04:49:13.333Z,99807.49
2022-10-22T04:51:40.561Z,99810.48
2022-10-22T04:54:07.725Z,99817.58
2022-10-22T04:56:34.788Z,99819.95
2022-10-22T04:59:05.122Z,99821.08
2022-10-22T05:01:37.088Z,99818.46
2022-10-22T05:04:08.401Z,99810.83
2022-10-22T05:06:37.234Z,99809.16
2022-10-22T05:09:07.662Z,99813.39
2022-10-22T05:11:41.925Z,99804.34
2022-10-22T05:14:10.528Z,99808.93
2022-10-22T05:16:38.779Z,99807.00
2022-10-22T05:19:06.485Z,99811.80
2022-10-22T05:21:34.408Z,99819.96
2022-10-22T05:24:01.564Z,99815.20
2022-10-22T05:26:30.799Z,99816.52
2022-10-22T05:28:58.092Z,99817.92
2022-10-22T05:31:25.550Z,99817.49
2022-10-22T05:33:53.486Z,99819.98
2022-10-22T05:36:23.003Z,99827.29
2022-10-22T05:38:50.760Z,99837.16
2022-10-22T05:41:21.087Z,99849.39
2022-10-22T05:43:48.858Z,99860.98
2022-10-22T05:46:22.771Z,99875.80
2022-10-22T05:48:52.371Z,99887.11
2022-10-22T05:51:19.654Z,99891.72
2022-10-22T05:53:47.097Z,99885.35
2022-10-22T05:56:16.381Z,99876.40
2022-10-22T05:58:44.974Z,99883.91
2022-10-22T06:01:17.874Z,99885.27
2022-10-22T06:03:47.356Z,99877.80
2022-10-22T06:06:34.679Z,99872.34
2022-10-22T06:09:05.439Z,99871.29
2022-10-22T06:11:35.111Z,99863.63
2022-10-22T06:14:03.332Z,99866.50
2022-10-22T06:16:31.481Z,99869.64
2022-10-22T06:19:05.210Z,99872.94
2022-10-22T06:21:32.967Z,99866.76
2022-10-22T06:24:01.419Z,99858.98
2022-10-22T06:26:35.135Z,99868.40
2022-10-22T06:29:02.481Z,99868.17
2022-10-22T06:31:33.941Z,99869.77
2022-10-22T06:34:01.378Z,99871.42
2022-10-22T06:36:29.315Z,99878.63
2022-10-22T06:38:57.744Z,99877.44
2022-10-22T06:41:28.562Z,99875.83
2022-10-22T06:43:57.971Z,99879.46
2022-10-22T06:46:27.959Z,99883.30
2022-10-22T06:49:05.526Z,99883.23
2022-10-22T06:51:33.041Z,99874.87
2022-10-22T06:54:06.341Z,99875.38
2022-10-22T06:56:33.607Z,99871.27
2022-10-22T06:59:01.595Z,99871.34
2022-10-22T07:01:35.105Z,99873.05
2022-10-22T07:04:05.018Z,99874.89
2022-10-22T07:06:35.606Z,99874.11
2022-10-22T07:09:03.403Z,99878.34
2022-10-22T07:11:39.212Z,99889.23
2022-10-22T07:14:06.454Z,99891.14
2022-10-22T07:16:35.662Z,99887.92
2022-10-22T07:19:04.267Z,99891.95
2022-10-22T07:21:32.423Z,99902.39
2022-10-22T07:23:59.799Z,99905.32
2022-10-22T07:26:31.275Z,99904.45
2022-10-22T07:29:00.402Z,99907.66
2022-10-22T07:31:28.090Z,99905.52
2022-10-22T07:33:55.626Z,99905.27
2022-10-22T07:36:23.089Z,99904.10
2022-10-22T07:38:56.994Z,99906.94
2022-10-22T07:41:25.635Z,99906.58
2022-10-22T07:43:55.642Z,99909.42
2022-10-22T07:46:23.559Z,99908.11
2022-10-22T07:48:50.776Z,99907.40
2022-10-22T07:51:18.183Z,99915.77
2022-10-22T07:53:48.312Z,99913.66
2022-10-22T07:56:15.740Z,99914.73
2022-10-22T07:58:43.310Z,99915.46
2022-10-22T08:01:10.628Z,99921.39
2022-10-22T08:03:38.239Z,99924.80
2022-10-22T08:06:06.251Z,99922.64
2022-10-22T08:08:35.174Z,99919.77
2022-10-22T08:11:03.804Z,99912.45
2022-10-22T08:13:31.500Z,99914.33
2022-10-22T08:16:03.111Z,99915.83
2022-10-22T08:18:32.693Z,99914.42
2022-10-22T08:20:59.991Z,99912.43
2022-10-22T08:23:28.672Z,99918.45
2022-10-22T08:25:57.685Z,99915.02
2022-10-22T08:28:25.187Z,99915.14
2022-10-22T08:30:52.750Z,99917.42
2022-10-22T08:33:20.311Z,99928.69
2022-10-22T08:35:51.967Z,99936.27
2022-10-22T08:38:20.165Z,99937.45
2022-10-22T08:40:54.680Z,99945.60
2022-10-22T08:43:46.371Z,99951.61
2022-10-22T08:46:53.053Z,99957.73
2022-10-22T08:49:29.758Z,99959.39
2022-10-22T08:52:00.871Z,99958.09
2022-10-22T08:54:48.390Z,99950.88
2022-10-22T08:57:40.650Z,99943.85
2022-10-22T09:00:36.451Z,99940.44
2022-10-22T09:03:08.629Z,99937.34
2022-10-22T09:05:41.737Z,99936.08
2022-10-22T09:08:13.647Z,99936.73
2022-10-22T09:10:47.068Z,99941.80
2022-10-22T09:13:17.906Z,99938.20
2022-10-22T09:16:25.778Z,99939.18
2022-10-22T09:19:27.253Z,99942.28
2022-10-22T09:22:29.888Z,99950.95
2022-10-22T09:25:10.409Z,99957.76
2022-10-22T09:27:38.806Z,99963.59
2022-10-22T09:30:07.381Z,99964.38
2022-10-22T09:32:34.922Z,99963.95
2022-10-22T09:35:02.289Z,99961.83
2022-10-22T09:37:31.244Z,99961.67
2022-10-22T09:40:00.058Z,99958.21
2022-10-22T09:42:27.322Z,99960.44
2022-10-22T09:45:00.135Z,99962.31
2022-10-22T09:47:42.523Z,99964.96
2022-10-22T09:50:24.009Z,99963.20
2022-10-22T09:53:06.414Z,99962.31
2022-10-22T09:55:33.758Z,99962.88
2022-10-22T09:58:02.441Z,99953.08
2022-10-22T10:00:31.780Z,99954.24
2022-10-22T10:03:00.838Z,99959.61
2022-10-22T10:05:34.943Z,99962.40
2022-10-22T10:08:22.480Z,99965.13
2022-10-22T10:10:54.791Z,99969.38
2022-10-22T10:13:48.667Z,99970.41
2022-10-22T10:16:39.559Z,99967.25
2022-10-22T10:19:36.683Z,99959.52
2022-10-22T10:22:25.445Z,99951.31
2022-10-22T10:25:21.670Z,99944.74
2022-10-22T10:28:05.309Z,99950.70
2022-10-22T10:30:33.800Z,99952.00
2022-10-22T10:33:23.977Z,99956.48
2022-10-22T10:36:09.352Z,99957.29
2022-10-22T10:38:48.810Z,99956.69
2022-10-22T10:41:53.104Z,99951.02
2022-10-22T10:44:29.377Z,99949.41
2022-10-22T10:47:18.639Z,99949.58
2022-10-22T10:49:46.573Z,99947.25
2022-10-22T10:52:27.999Z,99954.81
2022-10-22T10:55:10.509Z,99959.55
2022-10-22T10:57:50.346Z,99962.73
2022-10-22T11:00:21.184Z,99968.51
2022-10-22T11:03:10.173Z,99970.36
2022-10-22T11:05:58.948Z,99971.02
2022-10-22T11:08:39.531Z,99972.23
2022-10-22T11:11:30.630Z,99975.33
2022-10-22T11:14:20.777Z,99970.95
2022-10-22T11:17:07.196Z,99969.02
2022-10-22T11:19:50.907Z,99967.05
2022-10-22T11:22:36.165Z,99964.65
2022-10-22T11:25:18.329Z,99959.35
2022-10-22T11:28:10.477Z,99958.05
2022-10-22T11:30:41.458Z,99959.35
2022-10-22T11:33:17.071Z,99960.98
2022-10-22T11:35:45.871Z,99956.91
2022-10-22T11:38:21.075Z,99960.39
2022-10-22T11:40:51.286Z,99962.48
2022-10-22T11:44:15.294Z,99963.55
2022-10-22T11:46:53.506Z,99968.06
2022-10-22T11:49:25.900Z,99967.30
2022-10-22T11:52:14.465Z,99962.10
2022-10-22T11:54:44.994Z,99954.94
2022-10-22T11:57:15.034Z,99961.58
2022-10-22T11:59:43.564Z,99968.73
2022-10-22T12:02:29.146Z,99966.24
2022-10-22T12:04:58.092Z,99959.35
2022-10-22T12:07:34.152Z,99955.50
2022-10-22T12:10:06.659Z,99956.77
2022-10-22T12:12:37.013Z,99953.68
2022-10-22T12:15:24.318Z,99957.98
2022-10-22T12:17:52.256Z,99955.73
2022-10-22T12:20:19.717Z,99957.11
2022-10-22T12:22:50.112Z,99961.27
2022-10-22T12:25:24.966Z,99960.91
2022-10-22T12:27:57.486Z,99958.52
2022-10-22T12:30:30.962Z,99958.50
2022-10-22T12:33:01.464Z,99957.64
2022-10-22T12:35:31.384Z,99959.94
2022-10-22T12:38:01.914Z,99953.59
2022-10-22T12:40:45.835Z,99950.80
2022-10-22T12:43:25.084Z,99946.91
2022-10-22T12:45:52.758Z,99946.23
2022-10-22T12:48:24.318Z,99947.79
2022-10-22T12:50:54.528Z,99952.14
2022-10-22T12:53:28.982Z,99951.45
2022-10-22T12:55:58.467Z,99949.67
2022-10-22T12:58:28.572Z,99948.27
2022-10-22T13:00:58.832Z,99945.13
2022-10-22T13:04:20.168Z,99942.55
2022-10-22T13:06:52.183Z,99942.91
2022-10-22T13:09:27.450Z,99940.94
2022-10-22T13:11:59.726Z,99941.81
2022-10-22T13:14:30.167Z,99949.33
2022-10-22T13:17:16.730Z,99953.48
2022-10-22T13:19:52.951Z,99958.31
2022-10-22T13:22:35.977Z,99960.27
2022-10-22T13:25:17.584Z,99957.03
2022-10-22T13:27:53.121Z,99962.14
2022-10-22T13:30:20.418Z,99967.23
2022-10-22T13:32:53.650Z,99963.46
2022-10-22T13:35:25.093Z,99966.66
2022-10-22T13:37:52.667Z,99964.48
2022-10-22T13:40:21.302Z,99966.25
2022-10-22T13:42:48.488Z,99963.36
2022-10-22T13:45:16.565Z,99963.34
2022-10-22T13:47:48.903Z,99966.77
2022-10-22T13:50:17.959Z,99974.35
2022-10-22T13:52:48.865Z,99974.88
2022-10-22T13:55:28.410Z,99979.70
2022-10-22T13:58:13.572Z,99981.89
2022-10-22T14:00:43.992Z,99984.63
2022-10-22T14:03:17.299Z,99981.42
2022-10-22T14:05:47.854Z,99981.03
2022-10-22T14:08:18.792Z,99980.18
2022-10-22T14:10:46.203Z,99978.76
2022-10-22T14:13:14.956Z,99978.46
2022-10-22T14:15:42.892Z,99977.73
2022-10-22T14:18:13.608Z,99977.92
2022-10-22T14:20:42.273Z,99975.08
2022-10-22T14:23:20.122Z,99981.14
2022-10-22T14:25:48.292Z,99986.98
2022-10-22T14:28:15.641Z,99990.48
2022-10-22T14:30:43.523Z,99991.73
2022-10-22T14:33:19.540Z,99997.33
2022-10-22T14:35:48.934Z,100001.21
2022-10-22T14:38:17.958Z,100003.32
2022-10-22T14:40:45.828Z,100009.24
2022-10-22T14:43:24.700Z,100011.01
2022-10-22T14:45:52.808Z,100011.02
2022-10-22T14:48:20.595Z,100012.77
2022-10-22T14:50:48.497Z,100014.09
2022-10-22T14:53:17.315Z,100014.31
2022-10-22T14:55:49.365Z,100011.67
2022-10-22T14:58:17.695Z,100014.73
2022-10-22T15:00:45.131Z,100012.63
2022-10-22T15:03:13.509Z,100012.29
2022-10-22T15:05:45.559Z,100011.88
2022-10-22T15:08:16.066Z,100013.11
2022-10-22T15:10:44.163Z,100012.24
2022-10-22T15:13:12.125Z,100017.48
2022-10-22T15:15:41.569Z,100019.06
2022-10-22T15:18:08.878Z,100019.98
2022-10-22T15:20:36.498Z,100018.71
2022-10-22T15:23:04.251Z,100019.80
2022-10-22T15:25:32.083Z,100024.67
2022-10-22T15:28:02.091Z,100027.80
2022-10-22T15:30:36.838Z,100027.53
2022-10-22T15:33:04.148Z,100028.02
2022-10-22T15:35:31.449Z,100028.14
2022-10-22T15:37:58.836Z,100029.79
2022-10-22T15:40:26.112Z,100035.95
2022-10-22T15:42:55.210Z,100042.80
2022-10-22T15:45:25.046Z,100044.96
2022-10-22T15:47:52.661Z,100052.04
2022-10-22T15:50:20.017Z,100053.28
2022-10-22T15:52:47.322Z,100053.80
2022-10-22T15:55:15.171Z,100055.98
2022-10-22T15:57:42.663Z,100059.94
2022-10-22T16:00:12.395Z,100063.27
2022-10-22T16:02:39.800Z,100068.94
2022-10-22T16:05:07.756Z,100072.77
2022-10-22T16:07:35.161Z,100073.05
2022-10-22T16:10:02.423Z,100078.84
2022-10-22T16:12:30.195Z,100083.98
2022-10-22T16:14:58.355Z,100086.41
2022-10-22T16:17:25.623Z,100091.23
2022-10-22T16:19:52.998Z,100094.65
2022-10-22T16:22:20.368Z,100099.89
2022-10-22T16:24:47.578Z,100103.67
2022-10-22T16:27:14.670Z,100107.50
2022-10-22T16:29:42.360Z,100109.61
2022-10-22T16:32:10.085Z,100106.59
2022-10-22T16:34:37.292Z,100110.62
2022-10-22T16:37:11.185Z,100112.50
2022-10-22T16:39:39.459Z,100110.50
2022-10-22T16:42:07.383Z,100117.44
2022-10-22T16:44:37.222Z,100117.98
2022-10-22T16:47:06.201Z,100120.13
2022-10-22T16:49:33.700Z,100115.98
2022-10-22T16:52:01.532Z,100123.09
2022-10-22T16:54:29.522Z,100124.60
2022-10-22T16:56:56.984Z,100129.12
2022-10-22T16:59:24.788Z,100133.19
2022-10-22T17:01:53.145Z,100136.16
2022-10-22T17:04:20.386Z,100136.56
2022-10-22T17:06:47.675Z,100140.42
2022-10-22T17:09:15.377Z,100146.21
2022-10-22T17:11:46.009Z,100145.45
2022-10-22T17:14:14.056Z,100148.83
2022-10-22T17:16:42.122Z,100150.02
2022-10-22T17:19:16.021Z,100154.04
2022-10-22T17:21:44.544Z,100157.44
2022-10-22T17:24:12.404Z,100156.23
2022-10-22T17:26:40.148Z,100162.31
2022-10-22T17:29:08.142Z,100168.25
2022-10-22T17:31:37.846Z,100168.14
2022-10-22T17:34:08.125Z,100169.75
2022-10-22T17:36:36.334Z,100171.09
2022-10-22T17:39:07.437Z,100177.09
2022-10-22T17:41:37.843Z,100182.54
2022-10-22T17:44:09.778Z,100182.60
2022-10-22T17:46:37.740Z,100188.34
2022-10-22T17:49:08.503Z,100186.63
2022-10-22T17:51:38.657Z,100190.08
2022-10-22T17:54:08.904Z,100193.24
2022-10-22T17:56:41.173Z,100196.73
2022-10-22T17:59:09.470Z,100198.98
2022-10-22T18:01:47.841Z,100198.47
2022-10-22T18:04:18.964Z,100204.17
2022-10-22T18:06:47.583Z,100203.41
2022-10-22T18:09:20.229Z,100209.68
2022-10-22T18:11:53.153Z,100210.45
2022-10-22T18:14:23.696Z,100208.85
2022-10-22T18:16:51.578Z,100211.22
2022-10-22T18:19:22.884Z,100212.69
2022-10-22T18:21:51.772Z,100216.30
2022-10-22T18:24:20.563Z,100217.06
2022-10-22T18:26:48.321Z,100222.27
2022-10-22T18:29:21.302Z,100226.98
2022-10-22T18:31:50.026Z,100223.86
2022-10-22T18:34:23.227Z,100222.27
2022-10-22T18:36:53.969Z,100222.61
2022-10-22T18:39:22.421Z,100219.18
2022-10-22T18:41:49.767Z,100217.31
2022-10-22T18:44:19.939Z,100215.71
2022-10-22T18:46:48.168Z,100217.39
2022-10-22T18:49:23.868Z,100218.63
2022-10-22T18:51:53.777Z,100220.20
2022-10-22T18:54:26.787Z,100222.17
2022-10-22T18:56:58.032Z,100222.59
2022-10-22T18:59:29.859Z,100223.23
2022-10-22T19:02:01.754Z,100226.25
2022-10-22T19:04:35.097Z,100232.76
2022-10-22T19:07:04.015Z,100232.89
2022-10-22T19:09:32.068Z,100236.54
2022-10-22T19:12:00.346Z,100239.45
2022-10-22T19:14:28.269Z,100242.27
2022-10-22T19:16:58.305Z,100239.99
2022-10-22T19:19:26.976Z,100243.54
2022-10-22T19:21:57.616Z,100244.45
2022-10-22T19:24:27.335Z,100250.83
2022-10-22T19:26:54.989Z,100252.75
2022-10-22T19:29:22.923Z,100258.12
2022-10-22T19:31:52.307Z,100262.02
2022-10-22T19:34:21.136Z,100263.31
2022-10-22T19:36:49.603Z,100267.61
2022-10-22T19:39:18.688Z,100267.77
2022-10-22T19:41:47.621Z,100269.01
2022-10-22T19:44:15.577Z,100273.74
2022-10-22T19:46:42.913Z,100273.48
2022-10-22T19:49:11.297Z,100272.24
2022-10-22T19:51:41.418Z,100273.34
2022-10-22T19:54:13.069Z,100271.63
2022-10-22T19:56:41.671Z,100273.94
2022-10-22T19:59:10.021Z,100275.88
2022-10-22T20:01:37.796Z,100278.30
2022-10-22T20:04:06.443Z,100282.71
2022-10-22T20:06:35.261Z,100286.73
2022-10-22T20:09:02.521Z,100291.30
2022-10-22T20:11:31.368Z,100292.91
2022-10-22T20:13:59.510Z,100300.88
2022-10-22T20:16:30.202Z,100296.88
2022-10-22T20:19:06.372Z,100297.66
2022-10-22T20:21:34.542Z,100293.75
2022-10-22T20:24:02.285Z,100293.96
2022-10-22T20:26:33.530Z,100300.79
2022-10-22T20:29:01.531Z,100300.60
2022-10-22T20:31:31.208Z,100305.26
2022-10-22T20:34:02.992Z,100300.96
2022-10-22T20:36:31.554Z,100302.00
2022-10-22T20:39:02.011Z,100300.39
2022-10-22T20:41:30.213Z,100302.66
2022-10-22T20:43:57.933Z,100303.97
2022-10-22T20:46:31.367Z,100305.87
2022-10-22T20:49:06.598Z,100307.55
2022-10-22T20:51:37.229Z,100308.70
2022-10-22T20:54:06.202Z,100312.34
2022-10-22T20:56:39.482Z,100312.19
2022-10-22T20:59:08.807Z,100315.73
2022-10-22T21:01:45.337Z,100312.98
2022-10-22T21:04:14.204Z,100314.95
2022-10-22T21:06:43.470Z,100319.23
2022-10-22T21:09:13.382Z,100319.84
2022-10-22T21:11:42.606Z,100319.95
2022-10-22T21:14:14.511Z,100320.59
2022-10-22T21:16:44.134Z,100319.58
2022-10-22T21:19:12.221Z,100321.90
2022-10-22T21:21:39.679Z,100323.20
2022-10-22T21:24:08.120Z,100326.85
2022-10-22T21:26:40.809Z,100321.33
2022-10-22T21:29:09.615Z,100323.83
2022-10-22T21:31:38.272Z,100326.39
2022-10-22T21:34:06.605Z,100326.44
2022-10-22T21:36:35.619Z,100328.32
2022-10-22T21:39:03.533Z,100326.77
2022-10-22T21:41:31.460Z,100332.61
2022-10-22T21:43:59.578Z,100336.45
2022-10-22T21:46:28.459Z,100335.95
2022-10-22T21:48:58.254Z,100337.38
2022-10-22T21:51:25.855Z,100340.31
2022-10-22T21:53:55.353Z,100334.86
2022-10-22T21:56:28.139Z,100332.90
2022-10-22T21:58:57.369Z,100339.16
2022-10-22T22:01:25.066Z,100339.39
2022-10-22T22:03:53.355Z,100337.66
2022-10-22T22:06:23.286Z,100340.31
2022-10-22T22:08:52.838Z,100337.43
2022-10-22T22:11:23.105Z,100339.51
2022-10-22T22:13:51.264Z,100343.98
2022-10-22T22:16:27.271Z,100349.76
2022-10-22T22:18:58.522Z,100348.94
2022-10-22T22:21:26.335Z,100346.33
2022-10-22T22:23:53.576Z,100350.97
2022-10-22T22:26:25.478Z,100349.45
2022-10-22T22:28:56.739Z,100350.86
2022-10-22T22:31:33.172Z,100349.56
2022-10-22T22:34:08.915Z,100350.91
2022-10-22T22:36:40.910Z,100348.69
2022-10-22T22:39:12.827Z,100350.90
2022-10-22T22:41:41.063Z,100357.48
2022-10-22T22:44:08.818Z,100355.39
2022-10-22T22:46:37.737Z,100359.91
2022-10-22T22:49:08.064Z,100360.52
2022-10-22T22:51:36.207Z,100360.64
2022-10-22T22:54:03.796Z,100357.81
2022-10-22T22:56:35.168Z,100361.20
2022-10-22T22:59:03.914Z,100356.90
2022-10-22T23:01:39.720Z,100356.55
2022-10-22T23:04:20.019Z,100359.34
2022-10-22T23:06:47.592Z,100361.75
2022-10-22T23:09:17.142Z,100360.16
2022-10-22T23:11:46.836Z,100360.23
2022-10-22T23:14:15.982Z,100367.45
2022-10-22T23:16:46.639Z,100365.55
2022-10-22T23:19:20.946Z,100372.84
2022-10-22T23:21:51.203Z,100370.02
2022-10-22T23:24:25.676Z,100369.43
2022-10-22T23:26:54.883Z,100372.51
2022-10-22T23:29:27.909Z,100368.33
2022-10-22T23:31:55.759Z,100371.12
2022-10-22T23:34:25.249Z,100373.33
2022-10-22T23:36:53.314Z,100364.97
2022-10-22T23:39:23.537Z,100364.67
2022-10-22T23:41:51.409Z,100363.86
2022-10-22T23:44:21.489Z,100359.16
2022-10-22T23:46:48.974Z,100364.20
2022-10-22T23:49:16.986Z,100366.99
2022-10-22T23:51:45.306Z,100365.32
2022-10-22T23:54:15.300Z,100368.54
2022-10-22T23:56:42.588Z,100369.95
2022-10-22T23:59:10.355Z,100371.51
